sensor_id;sensor_type;location;lat;lon;timestamp;temperature;humidity
70214;DHT22;60138;55.808;37.078;2024-01-30T00:01:00;-0.25;86.00
70214;DHT22;60138;55.808;37.078;2024-01-30T00:03:26;-0.26;86.05
70214;DHT22;60138;55.808;37.078;2024-01-30T00:05:52;-0.26;86.02
70214;DHT22;60138;55.808;37.078;2024-01-30T00:08:18;-0.27;86.03
70214;DHT22;60138;55.808;37.078;2024-01-30T00:10:44;-0.29;86.06
70214;DHT22;60138;55.808;37.078;2024-01-30T00:13:09;-0.28;86.06
70214;DHT22;60138;55.808;37.078;2024-01-30T00:15:35;-0.29;86.06
70214;DHT22;60138;55.808;37.078;2024-01-30T00:18:01;-0.27;86.03
70214;DHT22;60138;55.808;37.078;2024-01-30T00:20:27;-0.28;86.01
70214;DHT22;60138;55.808;37.078;2024-01-30T00:22:53;-0.30;86.02
70214;DHT22;60138;55.808;37.078;2024-01-30T00:25:21;-0.32;86.02
70214;DHT22;60138;55.808;37.078;2024-01-30T00:27:47;-0.30;86.08
70214;DHT22;60138;55.808;37.078;2024-01-30T00:30:13;-0.27;86.08
70214;DHT22;60138;55.808;37.078;2024-01-30T00:32:39;-0.26;86.09
70214;DHT22;60138;55.808;37.078;2024-01-30T00:35:05;-0.26;86.06
70214;DHT22;60138;55.808;37.078;2024-01-30T00:37:31;-0.25;86.07
70214;DHT22;60138;55.808;37.078;2024-01-30T00:39:56;-0.26;86.06
70214;DHT22;60138;55.808;37.078;2024-01-30T00:42:22;-0.24;86.13
70214;DHT22;60138;55.808;37.078;2024-01-30T00:44:48;-0.22;86.07
70214;DHT22;60138;55.808;37.078;2024-01-30T00:47:14;-0.26;86.09
70214;DHT22;60138;55.808;37.078;2024-01-30T00:49:40;-0.25;86.11
70214;DHT22;60138;55.808;37.078;2024-01-30T00:52:06;-0.24;86.10
70214;DHT22;60138;55.808;37.078;2024-01-30T00:54:31;-0.24;86.13
70214;DHT22;60138;55.808;37.078;2024-01-30T00:56:57;-0.15;86.09
70214;DHT22;60138;55.808;37.078;2024-01-30T00:59:23;-0.16;86.10
70214;DHT22;60138;55.808;37.078;2024-01-30T01:01:49;-0.12;86.09
70214;DHT22;60138;55.808;37.078;2024-01-30T01:04:15;-0.09;86.06
70214;DHT22;60138;55.808;37.078;2024-01-30T01:06:41;-0.09;86.05
70214;DHT22;60138;55.808;37.078;2024-01-30T01:09:13;-0.06;86.07
70214;DHT22;60138;55.808;37.078;2024-01-30T01:11:39;-0.03;86.09
70214;DHT22;60138;55.808;37.078;2024-01-30T01:14:05;0.01;86.09
70214;DHT22;60138;55.808;37.078;2024-01-30T01:16:31;0.02;86.06
70214;DHT22;60138;55.808;37.078;2024-01-30T01:18:57;0.04;86.07
70214;DHT22;60138;55.808;37.078;2024-01-30T01:21:23;0.06;86.06
70214;DHT22;60138;55.808;37.078;2024-01-30T01:23:49;0.07;86.07
70214;DHT22;60138;55.808;37.078;2024-01-30T01:26:14;0.09;86.06
70214;DHT22;60138;55.808;37.078;2024-01-30T01:28:43;0.09;86.09
70214;DHT22;60138;55.808;37.078;2024-01-30T01:31:09;0.14;86.09
70214;DHT22;60138;55.808;37.078;2024-01-30T01:33:35;0.14;86.07
70214;DHT22;60138;55.808;37.078;2024-01-30T01:36:01;0.15;86.02
70214;DHT22;60138;55.808;37.078;2024-01-30T01:38:27;0.15;86.07
70214;DHT22;60138;55.808;37.078;2024-01-30T01:40:53;0.15;86.05
70214;DHT22;60138;55.808;37.078;2024-01-30T01:43:18;0.18;86.09
70214;DHT22;60138;55.808;37.078;2024-01-30T01:45:45;0.17;86.07
70214;DHT22;60138;55.808;37.078;2024-01-30T01:48:11;0.18;86.08
70214;DHT22;60138;55.808;37.078;2024-01-30T01:50:38;0.18;86.02
70214;DHT22;60138;55.808;37.078;2024-01-30T01:53:07;0.15;86.06
70214;DHT22;60138;55.808;37.078;2024-01-30T01:55:34;0.17;86.04
70214;DHT22;60138;55.808;37.078;2024-01-30T01:58:01;0.16;86.09
70214;DHT22;60138;55.808;37.078;2024-01-30T02:00:28;0.16;86.15
70214;DHT22;60138;55.808;37.078;2024-01-30T02:02:54;0.18;86.14
70214;DHT22;60138;55.808;37.078;2024-01-30T02:05:21;0.18;86.10
70214;DHT22;60138;55.808;37.078;2024-01-30T02:07:47;0.21;86.13
70214;DHT22;60138;55.808;37.078;2024-01-30T02:10:13;0.20;86.13
70214;DHT22;60138;55.808;37.078;2024-01-30T02:12:40;0.22;86.14
70214;DHT22;60138;55.808;37.078;2024-01-30T02:15:06;0.23;86.19
70214;DHT22;60138;55.808;37.078;2024-01-30T02:17:38;0.27;86.19
70214;DHT22;60138;55.808;37.078;2024-01-30T02:20:04;0.29;86.19
70214;DHT22;60138;55.808;37.078;2024-01-30T02:22:32;0.29;86.17
70214;DHT22;60138;55.808;37.078;2024-01-30T02:24:59;0.30;86.17
70214;DHT22;60138;55.808;37.078;2024-01-30T02:27:25;0.32;86.22
70214;DHT22;60138;55.808;37.078;2024-01-30T02:29:51;0.35;86.19
70214;DHT22;60138;55.808;37.078;2024-01-30T02:32:17;0.33;86.18
70214;DHT22;60138;55.808;37.078;2024-01-30T02:34:43;0.34;86.25
70214;DHT22;60138;55.808;37.078;2024-01-30T02:37:09;0.36;86.22
70214;DHT22;60138;55.808;37.078;2024-01-30T02:39:35;0.35;86.26
70214;DHT22;60138;55.808;37.078;2024-01-30T02:42:01;0.34;86.28
70214;DHT22;60138;55.808;37.078;2024-01-30T02:44:26;0.35;86.29
70214;DHT22;60138;55.808;37.078;2024-01-30T02:46:52;0.34;86.29
70214;DHT22;60138;55.808;37.078;2024-01-30T02:49:18;0.36;86.29
70214;DHT22;60138;55.808;37.078;2024-01-30T02:51:44;0.38;86.31
70214;DHT22;60138;55.808;37.078;2024-01-30T02:54:10;0.36;86.27
70214;DHT22;60138;55.808;37.078;2024-01-30T02:56:35;0.38;86.32
70214;DHT22;60138;55.808;37.078;2024-01-30T02:59:01;0.39;86.38
70214;DHT22;60138;55.808;37.078;2024-01-30T03:01:27;0.40;86.38
70214;DHT22;60138;55.808;37.078;2024-01-30T03:03:53;0.42;86.38
70214;DHT22;60138;55.808;37.078;2024-01-30T03:06:18;0.42;86.39
70214;DHT22;60138;55.808;37.078;2024-01-30T03:08:44;0.44;86.39
70214;DHT22;60138;55.808;37.078;2024-01-30T03:11:10;0.44;86.39
70214;DHT22;60138;55.808;37.078;2024-01-30T03:13:36;0.45;86.38
70214;DHT22;60138;55.808;37.078;2024-01-30T03:16:02;0.45;86.38
70214;DHT22;60138;55.808;37.078;2024-01-30T03:18:28;0.47;86.41
70214;DHT22;60138;55.808;37.078;2024-01-30T03:20:53;0.47;86.41
70214;DHT22;60138;55.808;37.078;2024-01-30T03:23:19;0.48;86.46
70214;DHT22;60138;55.808;37.078;2024-01-30T03:25:45;0.51;86.41
70214;DHT22;60138;55.808;37.078;2024-01-30T03:28:11;0.52;86.40
70214;DHT22;60138;55.808;37.078;2024-01-30T03:30:37;0.51;86.40
70214;DHT22;60138;55.808;37.078;2024-01-30T03:33:03;0.53;86.43
70214;DHT22;60138;55.808;37.078;2024-01-30T03:35:29;0.52;86.40
70214;DHT22;60138;55.808;37.078;2024-01-30T03:37:55;0.52;86.38
70214;DHT22;60138;55.808;37.078;2024-01-30T03:40:20;0.52;86.48
70214;DHT22;60138;55.808;37.078;2024-01-30T03:42:46;0.52;86.48
70214;DHT22;60138;55.808;37.078;2024-01-30T03:45:12;0.51;86.49
70214;DHT22;60138;55.808;37.078;2024-01-30T03:47:38;0.53;86.52
70214;DHT22;60138;55.808;37.078;2024-01-30T03:50:04;0.55;86.53
70214;DHT22;60138;55.808;37.078;2024-01-30T03:52:30;0.55;86.48
70214;DHT22;60138;55.808;37.078;2024-01-30T03:54:56;0.57;86.53
70214;DHT22;60138;55.808;37.078;2024-01-30T03:57:22;0.59;86.51
70214;DHT22;60138;55.808;37.078;2024-01-30T03:59:47;0.59;86.50
70214;DHT22;60138;55.808;37.078;2024-01-30T04:02:13;0.58;86.54
70214;DHT22;60138;55.808;37.078;2024-01-30T04:04:39;0.60;86.57
70214;DHT22;60138;55.808;37.078;2024-01-30T04:07:05;0.60;86.54
70214;DHT22;60138;55.808;37.078;2024-01-30T04:09:31;0.62;86.51
70214;DHT22;60138;55.808;37.078;2024-01-30T04:11:57;0.64;86.53
70214;DHT22;60138;55.808;37.078;2024-01-30T04:14:22;0.64;86.51
70214;DHT22;60138;55.808;37.078;2024-01-30T04:16:48;0.65;86.54
70214;DHT22;60138;55.808;37.078;2024-01-30T04:19:14;0.66;86.52
70214;DHT22;60138;55.808;37.078;2024-01-30T04:21:40;0.66;86.58
70214;DHT22;60138;55.808;37.078;2024-01-30T04:24:06;0.65;86.55
70214;DHT22;60138;55.808;37.078;2024-01-30T04:26:32;0.66;86.63
70214;DHT22;60138;55.808;37.078;2024-01-30T04:28:58;0.67;86.58
70214;DHT22;60138;55.808;37.078;2024-01-30T04:31:26;0.68;86.64
70214;DHT22;60138;55.808;37.078;2024-01-30T04:33:52;0.69;86.60
70214;DHT22;60138;55.808;37.078;2024-01-30T04:36:17;0.71;86.55
70214;DHT22;60138;55.808;37.078;2024-01-30T04:38:43;0.69;86.62
70214;DHT22;60138;55.808;37.078;2024-01-30T04:41:10;0.72;86.65
70214;DHT22;60138;55.808;37.078;2024-01-30T04:43:35;0.71;86.46
70214;DHT22;60138;55.808;37.078;2024-01-30T04:46:01;0.73;86.71
70214;DHT22;60138;55.808;37.078;2024-01-30T04:48:27;0.72;86.45
70214;DHT22;60138;55.808;37.078;2024-01-30T04:50:53;0.74;86.69
70214;DHT22;60138;55.808;37.078;2024-01-30T04:53:19;0.77;86.74
70214;DHT22;60138;55.808;37.078;2024-01-30T04:55:45;0.77;86.73
70214;DHT22;60138;55.808;37.078;2024-01-30T04:58:10;0.73;86.67
70214;DHT22;60138;55.808;37.078;2024-01-30T05:00:36;0.75;86.72
70214;DHT22;60138;55.808;37.078;2024-01-30T05:03:02;0.78;86.73
70214;DHT22;60138;55.808;37.078;2024-01-30T05:05:28;0.78;86.68
70214;DHT22;60138;55.808;37.078;2024-01-30T05:07:54;0.79;86.70
70214;DHT22;60138;55.808;37.078;2024-01-30T05:10:20;0.80;86.70
70214;DHT22;60138;55.808;37.078;2024-01-30T05:12:45;0.79;86.74
70214;DHT22;60138;55.808;37.078;2024-01-30T05:15:11;0.81;86.80
70214;DHT22;60138;55.808;37.078;2024-01-30T05:17:37;0.84;86.77
70214;DHT22;60138;55.808;37.078;2024-01-30T05:20:03;0.86;86.81
70214;DHT22;60138;55.808;37.078;2024-01-30T05:22:30;0.84;86.69
70214;DHT22;60138;55.808;37.078;2024-01-30T05:24:56;0.86;86.76
70214;DHT22;60138;55.808;37.078;2024-01-30T05:27:22;0.86;86.57
70214;DHT22;60138;55.808;37.078;2024-01-30T05:29:48;0.88;86.74
70214;DHT22;60138;55.808;37.078;2024-01-30T05:32:13;0.89;86.75
70214;DHT22;60138;55.808;37.078;2024-01-30T05:34:39;0.91;86.78
70214;DHT22;60138;55.808;37.078;2024-01-30T05:37:05;0.92;86.78
70214;DHT22;60138;55.808;37.078;2024-01-30T05:39:31;0.92;86.83
70214;DHT22;60138;55.808;37.078;2024-01-30T05:41:57;0.95;86.81
70214;DHT22;60138;55.808;37.078;2024-01-30T05:44:23;0.92;86.70
70214;DHT22;60138;55.808;37.078;2024-01-30T05:46:48;0.93;86.80
70214;DHT22;60138;55.808;37.078;2024-01-30T05:49:14;0.93;86.88
70214;DHT22;60138;55.808;37.078;2024-01-30T05:51:40;0.93;86.90
70214;DHT22;60138;55.808;37.078;2024-01-30T05:54:06;0.94;86.84
70214;DHT22;60138;55.808;37.078;2024-01-30T05:56:32;0.97;86.90
70214;DHT22;60138;55.808;37.078;2024-01-30T05:58:58;0.95;86.83
70214;DHT22;60138;55.808;37.078;2024-01-30T06:01:23;0.97;86.83
70214;DHT22;60138;55.808;37.078;2024-01-30T06:03:49;0.99;86.88
70214;DHT22;60138;55.808;37.078;2024-01-30T06:06:15;1.01;86.78
70214;DHT22;60138;55.808;37.078;2024-01-30T06:08:41;0.99;86.86
70214;DHT22;60138;55.808;37.078;2024-01-30T06:11:10;0.99;86.90
70214;DHT22;60138;55.808;37.078;2024-01-30T06:13:36;0.98;86.90
70214;DHT22;60138;55.808;37.078;2024-01-30T06:16:02;1.03;86.86
70214;DHT22;60138;55.808;37.078;2024-01-30T06:18:28;1.05;86.86
70214;DHT22;60138;55.808;37.078;2024-01-30T06:20:53;1.08;86.86
70214;DHT22;60138;55.808;37.078;2024-01-30T06:23:19;1.08;86.77
70214;DHT22;60138;55.808;37.078;2024-01-30T06:25:45;1.10;86.83
70214;DHT22;60138;55.808;37.078;2024-01-30T06:28:11;1.10;86.62
70214;DHT22;60138;55.808;37.078;2024-01-30T06:30:37;1.08;86.70
70214;DHT22;60138;55.808;37.078;2024-01-30T06:33:03;1.10;86.81
70214;DHT22;60138;55.808;37.078;2024-01-30T06:35:28;1.09;86.77
70214;DHT22;60138;55.808;37.078;2024-01-30T06:37:55;1.09;86.80
70214;DHT22;60138;55.808;37.078;2024-01-30T06:40:23;1.09;86.84
70214;DHT22;60138;55.808;37.078;2024-01-30T06:42:50;1.09;86.86
70214;DHT22;60138;55.808;37.078;2024-01-30T06:45:15;1.13;86.78
70214;DHT22;60138;55.808;37.078;2024-01-30T06:47:41;1.18;86.91
70214;DHT22;60138;55.808;37.078;2024-01-30T06:50:07;1.19;86.72
70214;DHT22;60138;55.808;37.078;2024-01-30T06:52:33;1.20;86.77
70214;DHT22;60138;55.808;37.078;2024-01-30T06:54:59;1.20;86.73
70214;DHT22;60138;55.808;37.078;2024-01-30T06:57:25;1.20;86.77
70214;DHT22;60138;55.808;37.078;2024-01-30T06:59:51;1.23;86.74
70214;DHT22;60138;55.808;37.078;2024-01-30T07:02:17;1.24;86.77
70214;DHT22;60138;55.808;37.078;2024-01-30T07:04:42;1.23;86.65
70214;DHT22;60138;55.808;37.078;2024-01-30T07:07:08;1.28;86.77
70214;DHT22;60138;55.808;37.078;2024-01-30T07:09:34;1.31;86.54
70214;DHT22;60138;55.808;37.078;2024-01-30T07:12:00;1.36;86.71
70214;DHT22;60138;55.808;37.078;2024-01-30T07:14:26;1.40;86.55
70214;DHT22;60138;55.808;37.078;2024-01-30T07:16:52;1.48;86.52
70214;DHT22;60138;55.808;37.078;2024-01-30T07:19:17;1.52;86.60
70214;DHT22;60138;55.808;37.078;2024-01-30T07:21:43;1.54;86.48
70214;DHT22;60138;55.808;37.078;2024-01-30T07:24:09;1.56;86.28
70214;DHT22;60138;55.808;37.078;2024-01-30T07:26:35;1.52;86.32
70214;DHT22;60138;55.808;37.078;2024-01-30T07:29:01;1.50;86.37
70214;DHT22;60138;55.808;37.078;2024-01-30T07:31:27;1.51;86.40
70214;DHT22;60138;55.808;37.078;2024-01-30T07:33:53;1.54;86.39
70214;DHT22;60138;55.808;37.078;2024-01-30T07:36:19;1.56;86.14
70214;DHT22;60138;55.808;37.078;2024-01-30T07:38:45;1.60;86.12
70214;DHT22;60138;55.808;37.078;2024-01-30T07:41:11;1.65;86.29
70214;DHT22;60138;55.808;37.078;2024-01-30T07:43:38;1.64;85.90
70214;DHT22;60138;55.808;37.078;2024-01-30T07:46:04;1.63;85.90
70214;DHT22;60138;55.808;37.078;2024-01-30T07:48:30;1.62;85.73
70214;DHT22;60138;55.808;37.078;2024-01-30T07:50:56;1.64;85.77
70214;DHT22;60138;55.808;37.078;2024-01-30T07:53:22;1.67;85.96
70214;DHT22;60138;55.808;37.078;2024-01-30T07:55:47;1.71;85.96
70214;DHT22;60138;55.808;37.078;2024-01-30T07:58:13;1.72;85.90
70214;DHT22;60138;55.808;37.078;2024-01-30T08:00:39;1.68;85.65
70214;DHT22;60138;55.808;37.078;2024-01-30T08:03:05;1.69;85.84
70214;DHT22;60138;55.808;37.078;2024-01-30T08:05:32;1.72;86.00
70214;DHT22;60138;55.808;37.078;2024-01-30T08:07:58;1.72;85.73
70214;DHT22;60138;55.808;37.078;2024-01-30T08:10:24;1.70;85.84
70214;DHT22;60138;55.808;37.078;2024-01-30T08:12:50;1.67;85.53
70214;DHT22;60138;55.808;37.078;2024-01-30T08:15:16;1.62;85.74
70214;DHT22;60138;55.808;37.078;2024-01-30T08:17:43;1.62;85.97
70214;DHT22;60138;55.808;37.078;2024-01-30T08:20:09;1.62;85.90
70214;DHT22;60138;55.808;37.078;2024-01-30T08:22:35;1.61;85.94
70214;DHT22;60138;55.808;37.078;2024-01-30T08:25:01;1.65;85.76
70214;DHT22;60138;55.808;37.078;2024-01-30T08:27:27;1.66;85.70
70214;DHT22;60138;55.808;37.078;2024-01-30T08:29:53;1.70;85.72
70214;DHT22;60138;55.808;37.078;2024-01-30T08:32:19;1.72;85.32
70214;DHT22;60138;55.808;37.078;2024-01-30T08:34:45;1.78;85.60
70214;DHT22;60138;55.808;37.078;2024-01-30T08:37:10;1.78;85.32
70214;DHT22;60138;55.808;37.078;2024-01-30T08:39:37;1.80;85.40
70214;DHT22;60138;55.808;37.078;2024-01-30T08:42:03;1.90;85.73
70214;DHT22;60138;55.808;37.078;2024-01-30T08:44:30;1.95;85.69
70214;DHT22;60138;55.808;37.078;2024-01-30T08:46:55;1.97;85.06
70214;DHT22;60138;55.808;37.078;2024-01-30T08:49:21;1.91;85.03
70214;DHT22;60138;55.808;37.078;2024-01-30T08:51:47;1.86;84.75
70214;DHT22;60138;55.808;37.078;2024-01-30T08:54:13;1.83;84.94
70214;DHT22;60138;55.808;37.078;2024-01-30T08:56:39;1.87;85.42
70214;DHT22;60138;55.808;37.078;2024-01-30T08:59:04;1.87;85.26
70214;DHT22;60138;55.808;37.078;2024-01-30T09:01:30;1.93;85.32
70214;DHT22;60138;55.808;37.078;2024-01-30T09:03:56;1.96;85.02
70214;DHT22;60138;55.808;37.078;2024-01-30T09:06:22;1.93;84.52
70214;DHT22;60138;55.808;37.078;2024-01-30T09:08:48;1.95;85.21
70214;DHT22;60138;55.808;37.078;2024-01-30T09:11:14;1.96;85.28
70214;DHT22;60138;55.808;37.078;2024-01-30T09:13:41;1.92;84.56
70214;DHT22;60138;55.808;37.078;2024-01-30T09:16:07;1.88;84.72
70214;DHT22;60138;55.808;37.078;2024-01-30T09:18:33;1.84;84.80
70214;DHT22;60138;55.808;37.078;2024-01-30T09:20:59;1.82;85.06
70214;DHT22;60138;55.808;37.078;2024-01-30T09:23:27;1.80;84.69
70214;DHT22;60138;55.808;37.078;2024-01-30T09:25:53;1.84;85.09
70214;DHT22;60138;55.808;37.078;2024-01-30T09:28:19;1.82;84.83
70214;DHT22;60138;55.808;37.078;2024-01-30T09:30:45;1.87;84.93
70214;DHT22;60138;55.808;37.078;2024-01-30T09:33:11;1.87;84.70
70214;DHT22;60138;55.808;37.078;2024-01-30T09:35:36;1.88;85.32
70214;DHT22;60138;55.808;37.078;2024-01-30T09:38:03;1.83;85.06
70214;DHT22;60138;55.808;37.078;2024-01-30T09:40:29;1.82;85.25
70214;DHT22;60138;55.808;37.078;2024-01-30T09:42:55;1.81;84.83
70214;DHT22;60138;55.808;37.078;2024-01-30T09:45:25;1.77;84.91
70214;DHT22;60138;55.808;37.078;2024-01-30T09:47:52;1.76;84.92
70214;DHT22;60138;55.808;37.078;2024-01-30T09:50:18;1.77;85.18
70214;DHT22;60138;55.808;37.078;2024-01-30T09:52:45;1.79;85.58
70214;DHT22;60138;55.808;37.078;2024-01-30T09:55:12;1.77;85.00
70214;DHT22;60138;55.808;37.078;2024-01-30T09:57:38;1.78;85.09
70214;DHT22;60138;55.808;37.078;2024-01-30T10:00:05;1.79;84.93
70214;DHT22;60138;55.808;37.078;2024-01-30T10:02:39;1.90;85.20
70214;DHT22;60138;55.808;37.078;2024-01-30T10:05:05;1.96;85.51
70214;DHT22;60138;55.808;37.078;2024-01-30T10:07:31;1.98;85.04
70214;DHT22;60138;55.808;37.078;2024-01-30T10:09:57;2.00;85.06
70214;DHT22;60138;55.808;37.078;2024-01-30T10:12:23;2.07;85.32
70214;DHT22;60138;55.808;37.078;2024-01-30T10:14:49;2.13;85.07
70214;DHT22;60138;55.808;37.078;2024-01-30T10:17:15;2.23;84.73
70214;DHT22;60138;55.808;37.078;2024-01-30T10:19:41;2.31;85.00
70214;DHT22;60138;55.808;37.078;2024-01-30T10:22:07;2.37;85.13
70214;DHT22;60138;55.808;37.078;2024-01-30T10:24:36;2.35;84.12
70214;DHT22;60138;55.808;37.078;2024-01-30T10:27:02;2.35;83.49
70214;DHT22;60138;55.808;37.078;2024-01-30T10:29:29;2.36;84.10
70214;DHT22;60138;55.808;37.078;2024-01-30T10:32:02;2.27;83.69
70214;DHT22;60138;55.808;37.078;2024-01-30T10:34:28;2.23;83.38
70214;DHT22;60138;55.808;37.078;2024-01-30T10:37:08;2.17;83.72
70214;DHT22;60138;55.808;37.078;2024-01-30T10:39:38;2.16;84.10
70214;DHT22;60138;55.808;37.078;2024-01-30T10:42:05;2.15;83.93
70214;DHT22;60138;55.808;37.078;2024-01-30T10:45:05;2.14;84.01
70214;DHT22;60138;55.808;37.078;2024-01-30T10:47:34;2.14;84.11
70214;DHT22;60138;55.808;37.078;2024-01-30T10:50:00;2.13;83.42
70214;DHT22;60138;55.808;37.078;2024-01-30T10:52:28;2.17;84.09
70214;DHT22;60138;55.808;37.078;2024-01-30T10:54:55;2.22;84.20
70214;DHT22;60138;55.808;37.078;2024-01-30T10:57:28;2.24;83.28
70214;DHT22;60138;55.808;37.078;2024-01-30T10:59:58;2.32;84.19
70214;DHT22;60138;55.808;37.078;2024-01-30T11:02:25;2.37;83.23
70214;DHT22;60138;55.808;37.078;2024-01-30T11:04:59;2.35;83.59
70214;DHT22;60138;55.808;37.078;2024-01-30T11:07:29;2.36;83.72
70214;DHT22;60138;55.808;37.078;2024-01-30T11:12:24;2.34;83.95
70214;DHT22;60138;55.808;37.078;2024-01-30T11:15:07;2.30;83.54
70214;DHT22;60138;55.808;37.078;2024-01-30T11:20:16;2.22;83.63
70214;DHT22;60138;55.808;37.078;2024-01-30T11:22:45;2.22;83.52
70214;DHT22;60138;55.808;37.078;2024-01-30T11:25:15;2.19;83.61
70214;DHT22;60138;55.808;37.078;2024-01-30T11:27:42;2.15;83.18
70214;DHT22;60138;55.808;37.078;2024-01-30T11:30:09;2.13;83.44
70214;DHT22;60138;55.808;37.078;2024-01-30T11:32:35;2.11;83.78
70214;DHT22;60138;55.808;37.078;2024-01-30T11:35:05;2.14;83.90
70214;DHT22;60138;55.808;37.078;2024-01-30T11:37:31;2.12;83.62
70214;DHT22;60138;55.808;37.078;2024-01-30T11:39:58;2.12;83.59
70214;DHT22;60138;55.808;37.078;2024-01-30T11:42:24;2.15;84.31
70214;DHT22;60138;55.808;37.078;2024-01-30T11:44:50;2.08;82.94
70214;DHT22;60138;55.808;37.078;2024-01-30T11:47:16;2.07;83.28
70214;DHT22;60138;55.808;37.078;2024-01-30T11:49:43;2.02;82.88
70214;DHT22;60138;55.808;37.078;2024-01-30T11:52:09;2.05;83.42
70214;DHT22;60138;55.808;37.078;2024-01-30T11:54:35;2.05;83.69
70214;DHT22;60138;55.808;37.078;2024-01-30T11:57:01;2.03;83.46
70214;DHT22;60138;55.808;37.078;2024-01-30T11:59:27;2.05;83.80
70214;DHT22;60138;55.808;37.078;2024-01-30T12:01:53;2.03;83.56
70214;DHT22;60138;55.808;37.078;2024-01-30T12:04:19;2.05;83.50
70214;DHT22;60138;55.808;37.078;2024-01-30T12:06:44;2.02;83.23
70214;DHT22;60138;55.808;37.078;2024-01-30T12:09:11;2.00;83.00
70214;DHT22;60138;55.808;37.078;2024-01-30T12:11:46;1.99;83.13
70214;DHT22;60138;55.808;37.078;2024-01-30T12:14:13;2.00;83.14
70214;DHT22;60138;55.808;37.078;2024-01-30T12:16:39;1.99;83.07
70214;DHT22;60138;55.808;37.078;2024-01-30T12:19:05;1.96;82.71
70214;DHT22;60138;55.808;37.078;2024-01-30T12:21:31;1.96;82.79
70214;DHT22;60138;55.808;37.078;2024-01-30T12:23:57;1.95;82.91
70214;DHT22;60138;55.808;37.078;2024-01-30T12:26:24;1.93;82.93
70214;DHT22;60138;55.808;37.078;2024-01-30T12:28:50;1.95;82.89
70214;DHT22;60138;55.808;37.078;2024-01-30T12:31:16;1.95;83.03
70214;DHT22;60138;55.808;37.078;2024-01-30T12:33:41;1.95;82.91
70214;DHT22;60138;55.808;37.078;2024-01-30T12:36:07;1.94;82.98
70214;DHT22;60138;55.808;37.078;2024-01-30T12:38:33;1.95;82.92
70214;DHT22;60138;55.808;37.078;2024-01-30T12:40:59;1.96;83.42
70214;DHT22;60138;55.808;37.078;2024-01-30T12:43:25;2.00;83.40
70214;DHT22;60138;55.808;37.078;2024-01-30T12:45:52;2.00;83.55
70214;DHT22;60138;55.808;37.078;2024-01-30T12:48:18;2.03;83.84
70214;DHT22;60138;55.808;37.078;2024-01-30T12:50:44;2.05;83.42
70214;DHT22;60138;55.808;37.078;2024-01-30T12:53:10;2.03;83.51
70214;DHT22;60138;55.808;37.078;2024-01-30T12:55:36;2.05;83.71
70214;DHT22;60138;55.808;37.078;2024-01-30T12:58:02;2.08;83.57
70214;DHT22;60138;55.808;37.078;2024-01-30T13:00:28;2.05;83.06
70214;DHT22;60138;55.808;37.078;2024-01-30T13:02:53;2.03;83.54
70214;DHT22;60138;55.808;37.078;2024-01-30T13:05:19;2.01;83.20
70214;DHT22;60138;55.808;37.078;2024-01-30T13:07:45;2.01;83.09
70214;DHT22;60138;55.808;37.078;2024-01-30T13:10:11;1.97;83.02
70214;DHT22;60138;55.808;37.078;2024-01-30T13:12:37;1.95;83.20
70214;DHT22;60138;55.808;37.078;2024-01-30T13:15:03;1.95;83.51
70214;DHT22;60138;55.808;37.078;2024-01-30T13:17:33;1.96;83.75
70214;DHT22;60138;55.808;37.078;2024-01-30T13:19:59;1.95;83.42
70214;DHT22;60138;55.808;37.078;2024-01-30T13:22:25;1.94;83.63
70214;DHT22;60138;55.808;37.078;2024-01-30T13:24:51;1.93;84.02
70214;DHT22;60138;55.808;37.078;2024-01-30T13:27:17;1.88;83.44
70214;DHT22;60138;55.808;37.078;2024-01-30T13:29:46;1.86;83.51
70214;DHT22;60138;55.808;37.078;2024-01-30T13:32:12;1.87;83.52
70214;DHT22;60138;55.808;37.078;2024-01-30T13:34:38;1.86;83.20
70214;DHT22;60138;55.808;37.078;2024-01-30T13:37:04;1.83;82.37
70214;DHT22;60138;55.808;37.078;2024-01-30T13:39:30;1.80;82.85
70214;DHT22;60138;55.808;37.078;2024-01-30T13:41:56;1.80;83.27
70214;DHT22;60138;55.808;37.078;2024-01-30T13:44:22;1.78;82.98
70214;DHT22;60138;55.808;37.078;2024-01-30T13:46:47;1.77;83.02
70214;DHT22;60138;55.808;37.078;2024-01-30T13:49:13;1.80;82.71
70214;DHT22;60138;55.808;37.078;2024-01-30T13:51:39;1.75;82.21
70214;DHT22;60138;55.808;37.078;2024-01-30T13:54:05;1.72;81.80
70214;DHT22;60138;55.808;37.078;2024-01-30T13:56:31;1.73;82.32
70214;DHT22;60138;55.808;37.078;2024-01-30T13:58:57;1.71;82.30
70214;DHT22;60138;55.808;37.078;2024-01-30T14:01:23;1.71;82.51
70214;DHT22;60138;55.808;37.078;2024-01-30T14:03:48;1.70;82.39
70214;DHT22;60138;55.808;37.078;2024-01-30T14:06:14;1.72;82.84
70214;DHT22;60138;55.808;37.078;2024-01-30T14:08:40;1.71;82.32
70214;DHT22;60138;55.808;37.078;2024-01-30T14:11:06;1.68;82.54
70214;DHT22;60138;55.808;37.078;2024-01-30T14:13:32;1.70;82.74
70214;DHT22;60138;55.808;37.078;2024-01-30T14:15:58;1.70;82.67
70214;DHT22;60138;55.808;37.078;2024-01-30T14:18:25;1.72;83.48
70214;DHT22;60138;55.808;37.078;2024-01-30T14:20:51;1.70;82.58
70214;DHT22;60138;55.808;37.078;2024-01-30T14:23:17;1.67;82.43
70214;DHT22;60138;55.808;37.078;2024-01-30T14:25:43;1.67;82.89
70214;DHT22;60138;55.808;37.078;2024-01-30T14:28:09;1.65;82.62
70214;DHT22;60138;55.808;37.078;2024-01-30T14:30:35;1.66;82.30
70214;DHT22;60138;55.808;37.078;2024-01-30T14:33:01;1.68;82.94
70214;DHT22;60138;55.808;37.078;2024-01-30T14:35:27;1.70;83.13
70214;DHT22;60138;55.808;37.078;2024-01-30T14:37:53;1.71;82.46
70214;DHT22;60138;55.808;37.078;2024-01-30T14:40:19;1.68;82.97
70214;DHT22;60138;55.808;37.078;2024-01-30T14:42:45;1.68;83.24
70214;DHT22;60138;55.808;37.078;2024-01-30T14:45:11;1.69;83.14
70214;DHT22;60138;55.808;37.078;2024-01-30T14:47:37;1.70;83.74
70214;DHT22;60138;55.808;37.078;2024-01-30T14:50:04;1.69;83.00
70214;DHT22;60138;55.808;37.078;2024-01-30T14:52:30;1.67;83.15
70214;DHT22;60138;55.808;37.078;2024-01-30T14:54:56;1.67;83.23
70214;DHT22;60138;55.808;37.078;2024-01-30T14:57:24;1.68;83.36
70214;DHT22;60138;55.808;37.078;2024-01-30T14:59:49;1.65;82.36
70214;DHT22;60138;55.808;37.078;2024-01-30T15:02:15;1.65;83.13
70214;DHT22;60138;55.808;37.078;2024-01-30T15:04:41;1.63;82.67
70214;DHT22;60138;55.808;37.078;2024-01-30T15:07:07;1.64;83.28
70214;DHT22;60138;55.808;37.078;2024-01-30T15:09:33;1.65;83.81
70214;DHT22;60138;55.808;37.078;2024-01-30T15:11:59;1.62;82.78
70214;DHT22;60138;55.808;37.078;2024-01-30T15:14:25;1.61;83.07
70214;DHT22;60138;55.808;37.078;2024-01-30T15:16:51;1.62;83.00
70214;DHT22;60138;55.808;37.078;2024-01-30T15:19:17;1.63;82.49
70214;DHT22;60138;55.808;37.078;2024-01-30T15:21:42;1.64;82.92
70214;DHT22;60138;55.808;37.078;2024-01-30T15:24:08;1.60;81.88
70214;DHT22;60138;55.808;37.078;2024-01-30T15:26:34;1.62;82.55
70214;DHT22;60138;55.808;37.078;2024-01-30T15:29:00;1.62;82.73